Time;durP1;ratioP1;P1;durP2;ratioP2;P2;SDS_P1;SDS_P2;PMS_P1;PMS_P2;Temp;Humidity;BMP_temperature;BMP_pressure;BME280_temperature;BME280_humidity;BME280_pressure;Samples;Min_cycle;Max_cycle;Signal;HPM_P1;HPM_P2
2024/04/18 00:02:07;;;;;;;0.60;0.40;;;9.30;61.80;11.30;101322.00;;;;5442402;26;20266;-88
2024/04/18 00:04:34;;;;;;;1.05;0.50;;;9.40;62.00;11.30;101333.00;;;;5449551;26;20239;-89
2024/04/18 00:07:04;;;;;;;0.93;0.40;;;9.30;62.00;11.30;101327.00;;;;5449528;26;20270;-87
2024/04/18 00:09:30;;;;;;;0.90;0.60;;;9.30;62.10;11.30;101336.00;;;;5449108;26;20308;-89
2024/04/18 00:11:59;;;;;;;0.93;0.50;;;9.40;62.10;11.30;101327.00;;;;5447674;26;20228;-89
2024/04/18 00:14:28;;;;;;;1.23;0.50;;;9.40;62.10;11.30;101333.00;;;;5449451;26;20837;-89
2024/04/18 00:16:56;;;;;;;0.80;0.50;;;9.40;62.20;11.30;101337.00;;;;5450308;26;20270;-87
2024/04/18 00:19:22;;;;;;;0.90;0.32;;;9.40;62.20;11.30;101339.00;;;;5449803;26;20298;-87
2024/04/18 00:21:51;;;;;;;0.80;0.57;;;9.40;62.20;11.30;101337.00;;;;5450356;26;20389;-88
2024/04/18 00:24:17;;;;;;;0.55;0.43;;;9.40;62.20;11.40;101339.00;;;;5450785;26;20677;-88
2024/04/18 00:26:46;;;;;;;0.85;0.40;;;9.40;62.30;11.40;101338.00;;;;5452251;26;20288;-87
2024/04/18 00:29:12;;;;;;;0.80;0.32;;;9.50;62.30;11.40;101338.00;;;;5451824;26;20339;-87
2024/04/18 00:31:43;;;;;;;0.80;0.40;;;9.40;62.30;11.40;101350.00;;;;5451734;26;20595;-86
2024/04/18 00:34:10;;;;;;;0.70;0.40;;;9.50;62.40;11.40;101349.00;;;;5454824;26;20243;-87
2024/04/18 00:36:39;;;;;;;0.75;0.50;;;9.50;62.40;11.40;101344.00;;;;5453662;26;20276;-87
2024/04/18 00:39:05;;;;;;;1.23;0.50;;;9.50;62.40;11.40;101349.00;;;;5452148;26;20259;-87
2024/04/18 00:41:34;;;;;;;0.90;0.40;;;9.50;62.40;11.40;101356.00;;;;5447242;26;20275;-86
2024/04/18 00:44:00;;;;;;;0.50;0.40;;;9.50;62.30;11.40;101357.00;;;;5451328;26;20295;-86
2024/04/18 00:46:28;;;;;;;1.35;0.40;;;9.50;62.30;11.40;101348.00;;;;5452283;26;20232;-86
2024/04/18 00:48:58;;;;;;;1.67;0.60;;;9.50;62.20;11.40;101345.00;;;;5451131;26;20252;-85
2024/04/18 00:51:27;;;;;;;0.75;0.50;;;9.50;62.10;11.40;101357.00;;;;5452760;26;20274;-86
2024/04/18 00:53:54;;;;;;;0.50;0.30;;;9.50;62.00;11.40;101356.00;;;;5453502;26;20717;-87
2024/04/18 00:56:23;;;;;;;1.10;0.70;;;9.50;62.00;11.40;101357.00;;;;5453296;26;20745;-87
2024/04/18 00:58:50;;;;;;;0.50;0.28;;;9.50;62.00;11.40;101352.00;;;;5451323;26;20805;-86
2024/04/18 01:01:20;;;;;;;0.82;0.47;;;9.50;62.00;11.40;101364.00;;;;5444297;26;20554;-87
2024/04/18 01:03:46;;;;;;;1.85;0.70;;;9.50;62.10;11.40;101364.00;;;;5452432;26;20706;-85
2024/04/18 01:06:18;;;;;;;0.80;0.55;;;9.50;62.10;11.40;101363.00;;;;5452877;26;20233;-88
2024/04/18 01:08:44;;;;;;;0.80;0.50;;;9.50;62.20;11.40;101372.00;;;;5450727;26;20245;-87
2024/04/18 01:11:13;;;;;;;0.88;0.45;;;9.40;62.20;11.30;101371.00;;;;5453697;26;20224;-85
2024/04/18 01:13:39;;;;;;;0.60;0.40;;;9.40;62.20;11.40;101375.00;;;;5453507;26;20310;-85
2024/04/18 01:16:08;;;;;;;0.55;0.45;;;9.50;62.40;11.40;101370.00;;;;5450472;26;20619;-84
2024/04/18 01:18:35;;;;;;;1.10;0.52;;;9.50;62.40;11.40;101372.00;;;;5453094;26;20263;-88
2024/04/18 01:21:04;;;;;;;0.70;0.60;;;9.50;62.40;11.40;101382.00;;;;5452977;26;20232;-85
2024/04/18 01:23:32;;;;;;;0.70;0.50;;;9.50;62.40;11.40;101373.00;;;;5452782;26;20358;-88
2024/04/18 01:26:01;;;;;;;0.68;0.40;;;9.50;62.40;11.40;101379.00;;;;5449762;26;20601;-87
2024/04/18 01:28:30;;;;;;;0.52;0.50;;;9.50;62.50;11.30;101386.00;;;;5451708;26;20686;-88
2024/04/18 01:30:58;;;;;;;1.05;0.55;;;9.50;62.40;11.40;101388.00;;;;5453169;26;20232;-88
2024/04/18 01:33:24;;;;;;;0.60;0.40;;;9.50;62.40;11.40;101386.00;;;;5450864;26;20308;-84
2024/04/18 01:35:53;;;;;;;1.02;0.55;;;9.50;62.40;11.40;101389.00;;;;5452490;26;20265;-87
2024/04/18 01:38:19;;;;;;;0.93;0.40;;;9.50;62.40;11.40;101397.00;;;;5451790;26;20325;-87
2024/04/18 01:40:48;;;;;;;0.82;0.40;;;9.50;62.40;11.40;101401.00;;;;5452385;26;20275;-86
2024/04/18 01:43:14;;;;;;;0.70;0.60;;;9.50;62.40;11.40;101391.00;;;;5450230;26;20753;-85
2024/04/18 01:45:45;;;;;;;1.67;0.50;;;9.50;62.40;11.40;101392.00;;;;5452630;26;20272;-87
2024/04/18 01:48:12;;;;;;;0.73;0.50;;;9.50;62.40;11.40;101392.00;;;;5451202;26;20817;-85
2024/04/18 01:50:41;;;;;;;0.93;0.60;;;9.50;62.40;11.40;101402.00;;;;5449946;26;20228;-86
2024/04/18 01:53:07;;;;;;;0.70;0.40;;;9.50;62.40;11.40;101406.00;;;;5451362;26;20740;-87
2024/04/18 01:55:35;;;;;;;1.00;0.60;;;9.50;62.40;11.40;101404.00;;;;5452486;26;20307;-84
2024/04/18 01:58:01;;;;;;;0.70;0.40;;;9.50;62.30;11.40;101407.00;;;;5451894;26;20236;-85
2024/04/18 02:00:30;;;;;;;1.05;0.60;;;9.50;62.30;11.30;101407.00;;;;5442980;26;20329;-88
2024/04/18 02:02:59;;;;;;;0.90;0.73;;;9.50;62.30;11.30;101414.00;;;;5452103;26;20336;-87
2024/04/18 02:05:28;;;;;;;1.23;0.43;;;9.50;62.30;11.30;101414.00;;;;5448653;26;20267;-87
2024/04/18 02:07:54;;;;;;;1.42;0.50;;;9.40;62.30;11.30;101414.00;;;;5452561;26;20781;-84
2024/04/18 02:10:22;;;;;;;1.80;0.73;;;9.40;62.20;11.20;101425.00;;;;5451457;26;20314;-86
2024/04/18 02:12:48;;;;;;;1.02;0.50;;;9.40;62.10;11.20;101421.00;;;;5452401;26;20560;-89
2024/04/18 02:15:17;;;;;;;0.70;0.50;;;9.30;62.00;11.10;101419.00;;;;5452203;26;20268;-86
2024/04/18 02:17:43;;;;;;;2.03;0.50;;;9.30;62.10;11.10;101422.00;;;;5452402;26;20244;-90
2024/04/18 02:20:15;;;;;;;0.80;0.52;;;9.30;62.10;11.00;101415.00;;;;5450667;26;20232;-88
2024/04/18 02:22:41;;;;;;;1.02;0.65;;;9.30;62.10;11.00;101424.00;;;;5452305;26;20768;-83
2024/04/18 02:25:11;;;;;;;1.90;0.85;;;9.20;62.00;11.00;101427.00;;;;5452266;26;20232;-91
2024/04/18 02:27:38;;;;;;;0.50;0.50;;;9.20;62.00;11.00;101433.00;;;;5453670;26;20891;-89
2024/04/18 02:30:09;;;;;;;0.90;0.73;;;9.20;62.00;10.90;101437.00;;;;5451239;26;20232;-81
2024/04/18 02:32:35;;;;;;;0.77;0.68;;;9.10;61.90;10.90;101435.00;;;;5452782;26;20259;-89
2024/04/18 02:35:04;;;;;;;2.85;0.70;;;9.10;61.90;10.80;101439.00;;;;5453523;26;20272;-91
2024/04/18 02:37:35;;;;;;;0.77;0.60;;;9.00;61.80;10.80;101449.00;;;;5452760;26;20232;-89
2024/04/18 02:40:03;;;;;;;0.93;0.70;;;9.00;61.80;10.70;101446.00;;;;5450136;26;20282;-90
2024/04/18 02:42:31;;;;;;;0.98;0.60;;;8.90;61.70;10.70;101450.00;;;;5452801;26;20232;-85
2024/04/18 02:45:00;;;;;;;1.60;0.85;;;8.90;61.80;10.70;101447.00;;;;5452548;26;20236;-87
2024/04/18 02:47:27;;;;;;;1.08;0.60;;;8.80;61.80;10.60;101454.00;;;;5453149;26;20227;-89
2024/04/18 02:49:55;;;;;;;0.95;0.65;;;8.80;61.80;10.60;101457.00;;;;5447613;26;20321;-87
2024/04/18 02:52:23;;;;;;;1.00;0.47;;;8.80;61.80;10.50;101458.00;;;;5450895;26;20350;-88
2024/04/18 02:54:54;;;;;;;0.90;0.50;;;8.70;61.80;10.50;101462.00;;;;5452664;26;20300;-89
2024/04/18 02:57:20;;;;;;;0.90;0.70;;;8.70;61.80;10.50;101465.00;;;;5452066;26;20254;-86
2024/04/18 02:59:49;;;;;;;0.75;0.50;;;8.60;61.80;10.40;101461.00;;;;5449773;26;20227;-88
2024/04/18 03:02:15;;;;;;;1.25;1.00;;;8.60;61.80;10.40;101469.00;;;;5451824;26;20248;-88
2024/04/18 03:04:44;;;;;;;1.85;0.80;;;8.50;61.80;10.30;101471.00;;;;5451662;26;20232;-86
2024/04/18 03:07:10;;;;;;;0.82;0.60;;;8.50;61.90;10.30;101475.00;;;;5451991;26;20275;-88
2024/04/18 03:09:39;;;;;;;0.93;0.75;;;8.50;61.90;10.30;101466.00;;;;5449262;26;21086;-82
2024/04/18 03:12:08;;;;;;;0.85;0.50;;;8.50;61.90;10.30;101480.00;;;;5452299;26;20280;-88
2024/04/18 03:14:36;;;;;;;1.23;0.80;;;8.40;61.90;10.20;101472.00;;;;5453405;26;20228;-87
2024/04/18 03:17:02;;;;;;;1.30;0.70;;;8.40;62.00;10.20;101484.00;;;;5439135;26;20335;-87
2024/04/18 03:19:31;;;;;;;1.85;0.98;;;8.40;62.00;10.20;101488.00;;;;5446318;26;20584;-88
2024/04/18 03:21:57;;;;;;;0.95;0.70;;;8.30;61.90;10.20;101494.00;;;;5452645;26;20244;-87
2024/04/18 03:24:26;;;;;;;1.40;1.08;;;8.30;62.20;10.10;101491.00;;;;5451504;26;20232;-88
2024/04/18 03:26:53;;;;;;;1.15;0.85;;;8.30;62.00;10.10;101498.00;;;;5441929;26;20248;-88
2024/04/18 03:29:24;;;;;;;0.98;0.60;;;8.20;62.00;10.00;101511.00;;;;5451186;26;20328;-87
2024/04/18 03:31:51;;;;;;;1.42;0.80;;;8.20;62.00;10.10;101508.00;;;;5444948;26;20304;-88
2024/04/18 03:34:20;;;;;;;1.48;0.77;;;8.10;62.10;10.00;101505.00;;;;5436805;26;20332;-88
2024/04/18 03:36:50;;;;;;;3.08;0.50;;;8.10;62.20;10.00;101502.00;;;;5447175;26;20937;-84
2024/04/18 03:39:19;;;;;;;1.58;0.90;;;8.10;62.30;10.00;101501.00;;;;5450409;26;20566;-89
2024/04/18 03:41:49;;;;;;;1.15;0.70;;;8.10;62.40;10.00;101508.00;;;;5450896;26;20244;-85
2024/04/18 03:44:18;;;;;;;1.27;0.80;;;8.10;62.50;10.00;101506.00;;;;5450401;26;20669;-86
2024/04/18 03:46:49;;;;;;;1.10;0.60;;;8.10;62.50;9.90;101514.00;;;;5449321;26;20712;-89
2024/04/18 03:49:17;;;;;;;1.65;0.70;;;8.10;62.50;9.90;101513.00;;;;5450451;26;20765;-87
2024/04/18 03:51:43;;;;;;;1.10;0.70;;;8.10;62.50;9.90;101525.00;;;;5450149;26;20232;-86
2024/04/18 03:54:12;;;;;;;1.10;1.00;;;8.00;62.30;9.80;101521.00;;;;5450292;26;20311;-89
2024/04/18 03:56:38;;;;;;;0.90;0.60;;;8.00;62.20;9.90;101521.00;;;;5448632;26;20344;-87
2024/04/18 03:59:07;;;;;;;0.93;0.80;;;8.00;62.20;9.80;101520.00;;;;5450260;26;20271;-89
2024/04/18 04:01:35;;;;;;;1.48;0.70;;;8.00;62.20;9.80;101521.00;;;;5435672;26;20295;-88
2024/04/18 04:04:06;;;;;;;1.08;0.80;;;7.90;62.10;9.80;101520.00;;;;5454029;26;20270;-89
2024/04/18 04:06:32;;;;;;;0.88;0.50;;;7.90;62.10;9.70;101516.00;;;;5450917;26;20247;-89
2024/04/18 04:09:01;;;;;;;0.73;0.50;;;7.90;62.10;9.70;101531.00;;;;5453469;26;20277;-87
2024/04/18 04:11:27;;;;;;;0.77;0.55;;;7.90;62.10;9.70;101526.00;;;;5454578;26;20336;-89
2024/04/18 04:13:56;;;;;;;1.15;0.93;;;7.80;62.20;9.70;101532.00;;;;5452817;26;20228;-88
2024/04/18 04:16:22;;;;;;;2.42;0.80;;;7.80;62.20;9.70;101524.00;;;;5455100;26;20233;-88
2024/04/18 04:18:54;;;;;;;1.95;0.93;;;7.80;62.30;9.60;101528.00;;;;5453862;26;20228;-89
2024/04/18 04:21:23;;;;;;;0.80;0.70;;;7.80;62.30;9.50;101534.00;;;;5453633;26;20228;-89
2024/04/18 04:23:52;;;;;;;1.10;0.90;;;7.70;62.20;9.60;101536.00;;;;5453067;26;20228;-87
2024/04/18 04:26:19;;;;;;;0.77;0.60;;;7.70;62.20;9.50;101549.00;;;;5453612;26;20332;-87
2024/04/18 04:28:48;;;;;;;1.92;0.70;;;7.70;62.20;9.50;101551.00;;;;5451310;26;20270;-89
2024/04/18 04:31:14;;;;;;;3.22;0.70;;;7.60;62.20;9.50;101550.00;;;;5452749;26;20251;-88
2024/04/18 04:33:42;;;;;;;1.48;0.70;;;7.60;62.20;9.50;101552.00;;;;5453873;26;20228;-89
2024/04/18 04:36:08;;;;;;;1.40;0.85;;;7.60;62.20;9.40;101551.00;;;;5452526;26;20769;-88
2024/04/18 04:38:40;;;;;;;1.05;0.85;;;7.60;62.30;9.40;101564.00;;;;5452896;26;20286;-89
2024/04/18 04:41:06;;;;;;;1.05;0.70;;;7.60;62.30;9.40;101563.00;;;;5452900;26;20311;-89
2024/04/18 04:43:35;;;;;;;2.25;1.23;;;7.50;62.20;9.40;101565.00;;;;5454016;26;20228;-88
2024/04/18 04:46:01;;;;;;;3.85;0.77;;;7.50;62.20;9.40;101564.00;;;;5453274;26;20834;-90
2024/04/18 04:48:30;;;;;;;2.00;0.90;;;7.50;62.20;9.40;101569.00;;;;5451495;26;20236;-89
2024/04/18 04:50:58;;;;;;;2.20;1.20;;;7.50;62.30;9.30;101574.00;;;;5451541;26;20642;-87
2024/04/18 04:53:26;;;;;;;1.88;1.00;;;7.50;62.40;9.30;101574.00;;;;5453638;26;20270;-86
2024/04/18 04:55:55;;;;;;;1.10;0.70;;;7.40;62.40;9.30;101579.00;;;;5450169;26;20332;-89
2024/04/18 04:58:24;;;;;;;4.05;1.00;;;7.40;62.40;9.30;101585.00;;;;5454064;26;20985;-90
2024/04/18 05:00:53;;;;;;;1.30;1.00;;;7.40;62.40;9.30;101590.00;;;;5440662;26;20279;-88
2024/04/18 05:03:22;;;;;;;1.00;0.90;;;7.40;62.40;9.30;101587.00;;;;5451167;26;20336;-89
2024/04/18 05:05:48;;;;;;;1.20;0.90;;;7.40;62.60;9.30;101590.00;;;;5455070;26;20236;-90
2024/04/18 05:08:17;;;;;;;1.33;1.02;;;7.40;62.60;9.30;101588.00;;;;5454451;26;20256;-89
2024/04/18 05:10:44;;;;;;;1.40;1.20;;;7.40;62.60;9.30;101600.00;;;;5454500;26;20232;-89
2024/04/18 05:13:19;;;;;;;1.13;0.82;;;7.40;62.70;9.30;101599.00;;;;5442322;26;20711;-84
2024/04/18 05:15:45;;;;;;;1.05;0.85;;;7.40;62.70;9.40;101609.00;;;;5453345;26;20235;-87
2024/04/18 05:18:15;;;;;;;1.48;1.05;;;7.40;62.70;9.40;101614.00;;;;5454837;26;20232;-87
2024/04/18 05:20:41;;;;;;;1.25;1.10;;;7.40;62.90;9.40;101616.00;;;;5454440;26;20233;-89
2024/04/18 05:23:10;;;;;;;1.70;1.20;;;7.40;63.00;9.40;101624.00;;;;5453658;26;20348;-89
2024/04/18 05:25:37;;;;;;;1.15;0.88;;;7.50;63.20;9.40;101629.00;;;;5452639;26;20225;-84
2024/04/18 05:28:10;;;;;;;1.95;1.25;;;7.50;63.20;9.40;101630.00;;;;5448505;26;20287;-90
2024/04/18 05:33:26;;;;;;;1.15;0.85;;;7.60;63.40;9.50;101639.00;;;;5456551;26;20267;-90
2024/04/18 05:35:55;;;;;;;1.52;1.25;;;7.60;63.50;9.50;101649.00;;;;5453987;26;20248;-85
2024/04/18 05:38:24;;;;;;;1.98;1.42;;;7.60;63.60;9.60;101649.00;;;;5452049;26;20248;-91
2024/04/18 05:40:58;;;;;;;2.00;1.25;;;7.70;63.70;9.60;101652.00;;;;5447308;26;20240;-90
2024/04/18 05:43:27;;;;;;;1.17;0.95;;;7.80;63.90;9.70;101660.00;;;;5455487;26;20559;-90
2024/04/18 05:45:58;;;;;;;1.90;1.20;;;7.80;63.90;9.70;101662.00;;;;5453983;26;20275;-90
2024/04/18 05:48:27;;;;;;;1.73;1.38;;;7.90;64.00;9.80;101667.00;;;;5446486;26;20244;-86
2024/04/18 05:50:56;;;;;;;2.42;1.55;;;7.90;64.00;9.90;101665.00;;;;5442483;26;20248;-85
2024/04/18 05:53:24;;;;;;;1.70;1.23;;;8.00;64.10;9.90;101667.00;;;;5460429;26;20293;-83
2024/04/18 05:55:53;;;;;;;1.52;1.10;;;8.10;64.30;10.00;101666.00;;;;5433457;26;20307;-82
2024/04/18 05:58:22;;;;;;;1.83;1.27;;;8.20;64.50;10.10;101680.00;;;;5465698;26;20235;-83
2024/04/18 06:00:51;;;;;;;1.90;1.33;;;8.20;65.30;10.20;101669.00;;;;5466677;26;20274;-82
2024/04/18 06:03:22;;;;;;;2.50;1.33;;;8.30;64.80;10.30;101673.00;;;;5454754;26;20344;-84
2024/04/18 06:05:51;;;;;;;1.75;1.30;;;8.40;64.90;10.40;101675.00;;;;5451737;26;20589;-84
2024/04/18 06:08:20;;;;;;;1.33;1.15;;;8.50;64.90;10.40;101680.00;;;;5449994;26;20240;-85
2024/04/18 06:10:49;;;;;;;2.20;1.30;;;8.60;64.80;10.50;101688.00;;;;5450919;26;20313;-84
2024/04/18 06:13:18;;;;;;;1.30;0.93;;;8.60;64.80;10.50;101681.00;;;;5451119;26;20236;-83
2024/04/18 06:15:47;;;;;;;1.58;1.33;;;8.70;64.70;10.60;101683.00;;;;5448433;26;20290;-85
2024/04/18 06:18:16;;;;;;;2.00;1.10;;;8.80;64.60;10.60;101689.00;;;;5447777;26;20240;-87
2024/04/18 06:20:50;;;;;;;1.95;1.27;;;8.80;64.60;10.70;101684.00;;;;5421453;26;20250;-83
2024/04/18 06:23:19;;;;;;;1.80;1.08;;;8.90;64.70;10.80;101686.00;;;;5452172;26;20278;-86
2024/04/18 06:25:48;;;;;;;1.17;0.77;;;9.00;65.20;10.90;101692.00;;;;5452376;26;20837;-87
2024/04/18 06:28:17;;;;;;;1.35;0.85;;;9.00;64.90;11.00;101684.00;;;;5452068;26;20555;-88
2024/04/18 06:30:46;;;;;;;1.80;1.00;;;9.10;65.70;11.10;101691.00;;;;5453437;26;20312;-84
2024/04/18 06:33:14;;;;;;;0.90;0.80;;;9.20;65.20;11.20;101702.00;;;;5450384;26;20247;-88
2024/04/18 06:35:46;;;;;;;1.55;0.82;;;9.30;65.20;11.30;101704.00;;;;5451396;26;20251;-87
2024/04/18 06:38:15;;;;;;;1.10;0.60;;;9.40;65.90;11.40;101698.00;;;;5449361;26;20349;-86
2024/04/18 06:40:44;;;;;;;1.38;0.90;;;9.50;65.30;11.50;101701.00;;;;5417136;26;20292;-87
2024/04/18 06:43:12;;;;;;;1.52;0.85;;;9.60;65.30;11.60;101703.00;;;;5443622;26;20247;-88
2024/04/18 06:45:41;;;;;;;1.60;0.60;;;9.70;65.40;11.80;101703.00;;;;5448860;26;20243;-87
2024/04/18 06:48:11;;;;;;;0.70;0.45;;;9.90;65.50;11.90;101717.00;;;;5449417;26;20360;-87
2024/04/18 06:50:40;;;;;;;1.60;0.98;;;9.90;65.40;12.00;101712.00;;;;5443472;26;20332;-84
2024/04/18 06:53:12;;;;;;;1.80;0.60;;;10.10;65.50;12.10;101719.00;;;;5436885;26;20965;-80
2024/04/18 06:55:40;;;;;;;0.63;0.40;;;10.20;65.70;12.30;101728.00;;;;5445604;26;20232;-81
2024/04/18 06:58:09;;;;;;;1.02;0.45;;;10.30;65.60;12.40;101733.00;;;;5441651;26;20567;-82
2024/04/18 07:00:40;;;;;;;0.88;0.40;;;10.40;65.60;12.50;101736.00;;;;5444395;26;20283;-85
2024/04/18 07:03:12;;;;;;;0.68;0.43;;;10.60;65.50;12.60;101741.00;;;;5432412;26;20283;-83
2024/04/18 07:05:41;;;;;;;1.75;0.30;;;10.70;65.30;12.60;101746.00;;;;5439884;26;20301;-82
2024/04/18 07:08:12;;;;;;;3.47;0.80;;;10.80;65.10;12.60;101746.00;;;;5451219;26;20350;-82
2024/04/18 07:10:41;;;;;;;0.82;0.50;;;10.80;64.70;12.70;101740.00;;;;5441759;26;20237;-81
2024/04/18 07:13:10;;;;;;;0.50;0.38;;;10.90;64.60;12.80;101746.00;;;;5429451;26;20237;-82
2024/04/18 07:15:39;;;;;;;0.40;0.30;;;11.00;64.50;12.80;101756.00;;;;5431450;26;20331;-81
2024/04/18 07:18:08;;;;;;;0.70;0.57;;;11.10;64.40;12.90;101751.00;;;;5434263;26;20228;-82
2024/04/18 07:20:37;;;;;;;0.98;0.65;;;11.10;64.20;13.00;101756.00;;;;5438393;26;20340;-82
2024/04/18 07:23:06;;;;;;;1.50;0.80;;;11.20;64.30;13.10;101755.00;;;;5450248;26;20764;-81
2024/04/18 07:25:39;;;;;;;1.50;0.80;;;11.30;64.50;13.20;101755.00;;;;5448080;26;20251;-81
2024/04/18 07:28:08;;;;;;;1.33;0.60;;;11.30;64.60;13.30;101757.00;;;;5450580;26;20751;-79
2024/04/18 07:30:37;;;;;;;0.93;0.30;;;11.40;64.50;13.40;101762.00;;;;5437632;26;20283;-80
2024/04/18 07:33:07;;;;;;;0.32;0.20;;;11.50;64.30;13.50;101764.00;;;;5450949;26;20253;-83
2024/04/18 07:35:35;;;;;;;0.43;0.25;;;11.60;64.20;13.60;101762.00;;;;5451843;26;20236;-81
2024/04/18 07:38:04;;;;;;;0.47;0.30;;;11.70;64.10;13.70;101757.00;;;;5450442;26;20364;-80
2024/04/18 07:40:33;;;;;;;1.33;0.40;;;11.80;64.10;13.70;101764.00;;;;5445896;26;20284;-82
2024/04/18 07:43:04;;;;;;;1.73;0.40;;;11.90;63.90;13.80;101770.00;;;;5449228;26;20627;-79
2024/04/18 07:45:35;;;;;;;0.55;0.40;;;12.00;63.60;13.80;101770.00;;;;5448582;26;20361;-81
2024/04/18 07:48:04;;;;;;;0.75;0.32;;;12.00;63.30;13.90;101774.00;;;;5448260;26;20929;-79
2024/04/18 07:50:32;;;;;;;0.45;0.32;;;12.10;63.20;13.90;101769.00;;;;5447376;26;20252;-81
2024/04/18 07:53:01;;;;;;;1.38;0.50;;;12.10;62.80;13.90;101774.00;;;;5450537;26;20220;-81
2024/04/18 07:55:27;;;;;;;1.10;0.32;;;12.20;62.70;14.00;101779.00;;;;5447301;26;20248;-79
2024/04/18 07:57:56;;;;;;;0.45;0.20;;;12.20;62.90;14.20;101773.00;;;;5448576;26;20235;-81
2024/04/18 08:00:27;;;;;;;0.65;0.50;;;12.30;63.30;14.30;101776.00;;;;5448274;26;20259;-80
2024/04/18 08:02:56;;;;;;;1.33;0.40;;;12.40;63.70;14.50;101780.00;;;;5449991;26;20648;-82
2024/04/18 08:05:25;;;;;;;1.90;0.40;;;12.60;63.80;14.70;101785.00;;;;5444525;26;20287;-78
2024/04/18 08:07:53;;;;;;;2.42;0.50;;;12.70;63.60;14.80;101780.00;;;;5439652;26;20357;-79
2024/04/18 08:10:22;;;;;;;1.55;0.30;;;12.80;63.30;14.90;101792.00;;;;5438989;26;20236;-79
2024/04/18 08:12:51;;;;;;;0.93;0.38;;;12.90;63.10;14.90;101801.00;;;;5449352;26;20217;-80
2024/04/18 08:15:20;;;;;;;1.70;0.47;;;13.10;62.60;15.00;101796.00;;;;5450613;26;20236;-79
2024/04/18 08:17:48;;;;;;;1.33;0.40;;;13.10;62.10;14.90;101803.00;;;;5445664;26;20287;-80
2024/04/18 08:20:17;;;;;;;1.25;0.40;;;13.20;62.50;15.00;101803.00;;;;5445381;26;20598;-78
2024/04/18 08:22:46;;;;;;;1.05;0.20;;;13.20;61.40;15.00;101797.00;;;;5434162;26;20304;-78
2024/04/18 08:25:16;;;;;;;1.48;0.38;;;13.20;60.80;15.00;101802.00;;;;5426453;26;20229;-79
2024/04/18 08:27:45;;;;;;;1.13;0.32;;;13.20;60.70;15.00;101801.00;;;;5438204;26;20233;-80
2024/04/18 08:30:14;;;;;;;0.50;0.30;;;13.20;60.80;15.10;101797.00;;;;5450150;26;20292;-79
2024/04/18 08:32:43;;;;;;;0.85;0.30;;;13.30;60.90;15.20;101794.00;;;;5449548;26;20340;-81
2024/04/18 08:35:16;;;;;;;0.88;0.40;;;13.30;60.90;15.20;101799.00;;;;5448627;26;20604;-79
2024/04/18 08:37:45;;;;;;;1.05;0.25;;;13.40;61.10;15.30;101802.00;;;;5437382;26;20236;-79
2024/04/18 08:40:14;;;;;;;1.65;0.30;;;13.40;60.90;15.40;101808.00;;;;5448624;26;20244;-78
2024/04/18 08:42:43;;;;;;;1.80;0.28;;;13.50;60.60;15.40;101805.00;;;;5443649;26;20328;-80
2024/04/18 08:45:15;;;;;;;0.65;0.22;;;13.50;60.70;15.50;101816.00;;;;5443613;26;20236;-80
2024/04/18 08:47:45;;;;;;;1.65;0.30;;;13.60;60.60;15.60;101813.00;;;;5443771;26;20875;-78
2024/04/18 08:50:19;;;;;;;1.55;0.20;;;13.70;60.70;15.70;101815.00;;;;5449762;26;20604;-79
2024/04/18 08:52:48;;;;;;;1.08;0.40;;;13.80;60.40;15.90;101812.00;;;;5449177;26;20288;-79
2024/04/18 08:55:17;;;;;;;1.00;0.35;;;13.90;60.50;16.00;101814.00;;;;5429702;26;20237;-77
2024/04/18 08:57:51;;;;;;;2.13;0.60;;;14.10;60.40;16.10;101819.00;;;;5446876;26;20624;-78
2024/04/18 09:00:20;;;;;;;3.42;0.70;;;14.20;60.30;16.30;101818.00;;;;5449507;26;20299;-77
2024/04/18 09:02:48;;;;;;;1.40;0.40;;;14.30;60.10;16.50;101821.00;;;;5452879;26;20288;-76
2024/04/18 09:05:19;;;;;;;1.50;0.20;;;14.50;59.80;16.60;101822.00;;;;5440750;26;20604;-77
2024/04/18 09:07:48;;;;;;;2.67;0.45;;;14.60;59.70;16.80;101826.00;;;;5440438;26;20369;-79
2024/04/18 09:10:21;;;;;;;2.67;0.52;;;14.80;59.40;16.80;101830.00;;;;5439264;26;20785;-79
2024/04/18 09:12:52;;;;;;;0.95;0.43;;;14.90;58.90;16.80;101827.00;;;;5425977;26;20228;-76
2024/04/18 09:15:21;;;;;;;2.92;0.75;;;15.00;58.40;16.80;101833.00;;;;5450624;26;20244;-82
2024/04/18 09:18:02;;;;;;;2.13;0.90;;;15.00;57.80;16.60;101838.00;;;;5443196;26;20275;-80
2024/04/18 09:20:38;;;;;;;0.70;0.40;;;15.00;57.20;16.60;101841.00;;;;5444900;26;20337;-79
2024/04/18 09:23:07;;;;;;;2.15;0.40;;;15.00;56.90;16.50;101837.00;;;;5449649;26;20235;-78
2024/04/18 09:25:36;;;;;;;0.90;0.30;;;14.90;56.80;16.50;101841.00;;;;5444263;26;20280;-79
2024/04/18 09:28:04;;;;;;;0.50;0.13;;;14.90;56.60;16.40;101834.00;;;;5436224;26;20236;-77
2024/04/18 09:30:33;;;;;;;0.55;0.20;;;14.80;56.60;16.30;101835.00;;;;5440344;26;20251;-79
2024/04/18 09:33:03;;;;;;;1.15;0.20;;;14.80;56.40;16.20;101836.00;;;;5450795;26;20780;-78
2024/04/18 09:35:37;;;;;;;0.73;0.28;;;14.70;56.30;16.20;101836.00;;;;5451616;26;20332;-78
2024/04/18 09:38:10;;;;;;;2.35;0.70;;;14.60;56.10;16.10;101830.00;;;;5452038;26;20231;-78
2024/04/18 09:40:45;;;;;;;3.65;0.55;;;14.60;56.00;16.10;101829.00;;;;5449656;26;20236;-74
2024/04/18 09:43:25;;;;;;;2.97;1.23;;;14.60;56.20;16.10;101824.00;;;;5448675;26;20343;-80
2024/04/18 09:46:05;;;;;;;1.45;0.60;;;14.60;56.10;16.30;101825.00;;;;5450453;26;20290;-79
2024/04/18 09:48:35;;;;;;;2.25;0.30;;;14.60;56.30;16.50;101823.00;;;;5449692;26;20622;-79
2024/04/18 09:51:08;;;;;;;0.50;0.28;;;14.70;56.70;16.60;101819.00;;;;5446189;26;20344;-79
2024/04/18 09:53:39;;;;;;;0.47;0.20;;;14.80;57.20;16.70;101817.00;;;;5439953;26;20336;-82
2024/04/18 09:56:09;;;;;;;1.15;0.28;;;14.90;56.50;16.80;101826.00;;;;5450977;26;20275;-77
2024/04/18 09:58:39;;;;;;;0.50;0.20;;;15.10;56.20;16.80;101825.00;;;;5449884;26;20270;-82
2024/04/18 10:01:08;;;;;;;1.40;0.43;;;15.20;55.80;16.80;101829.00;;;;5439509;26;20377;-80
2024/04/18 10:03:38;;;;;;;1.77;0.30;;;15.20;55.20;16.80;101823.00;;;;5449634;26;20361;-77
2024/04/18 10:06:14;;;;;;;0.80;0.10;;;15.20;54.40;16.80;101818.00;;;;5442056;26;20240;-78
2024/04/18 10:08:50;;;;;;;2.60;0.30;;;15.30;54.50;16.90;101823.00;;;;5450351;26;20556;-81
2024/04/18 10:11:23;;;;;;;0.60;0.17;;;15.40;54.20;17.00;101828.00;;;;5435698;26;20275;-81
2024/04/18 10:13:52;;;;;;;1.70;0.10;;;15.40;53.90;17.00;101836.00;;;;5443059;26;20224;-78
2024/04/18 10:16:22;;;;;;;0.35;0.35;;;15.40;53.20;16.90;101837.00;;;;5444119;26;20236;-78
2024/04/18 10:18:51;;;;;;;0.30;0.10;;;15.40;52.70;16.90;101835.00;;;;5435324;26;20224;-77
2024/04/18 10:21:29;;;;;;;1.45;0.40;;;15.40;52.90;16.90;101828.00;;;;5424937;26;20267;-78
2024/04/18 10:24:07;;;;;;;0.75;0.20;;;15.50;52.70;17.00;101823.00;;;;5432264;26;20244;-81
2024/04/18 10:26:39;;;;;;;1.30;0.30;;;15.50;52.70;17.10;101824.00;;;;5449020;26;20236;-79
2024/04/18 10:29:26;;;;;;;2.83;0.68;;;15.60;52.50;17.10;101819.00;;;;5446982;26;20240;-79
2024/04/18 10:31:55;;;;;;;0.70;0.20;;;15.60;51.20;17.40;101820.00;;;;5416457;26;20217;-79
2024/04/18 10:34:26;;;;;;;0.63;0.20;;;15.70;52.70;17.50;101823.00;;;;5423728;26;20336;-79
2024/04/18 10:37:05;;;;;;;2.40;0.40;;;15.90;53.10;17.60;101823.00;;;;5445418;26;20369;-78
2024/04/18 10:39:36;;;;;;;0.32;0.20;;;16.00;52.60;17.70;101823.00;;;;5425974;26;20232;-77
2024/04/18 10:42:08;;;;;;;1.15;0.10;;;16.10;52.50;17.80;101829.00;;;;5448024;26;20254;-76
2024/04/18 10:44:35;;;;;;;2.15;0.32;;;16.20;51.90;17.80;101832.00;;;;5449650;26;20352;-78
2024/04/18 10:47:06;;;;;;;2.38;0.20;;;16.30;51.80;17.90;101842.00;;;;5435661;26;20274;-77
2024/04/18 10:49:35;;;;;;;0.80;0.22;;;16.40;52.00;18.00;101839.00;;;;5447990;26;20271;-78
2024/04/18 10:52:10;;;;;;;0.30;0.20;;;16.40;51.30;18.10;101840.00;;;;5450445;26;20278;-76
2024/04/18 10:54:39;;;;;;;1.10;0.20;;;16.50;51.40;18.30;101830.00;;;;5448509;26;20603;-79
2024/04/18 10:57:09;;;;;;;1.85;0.50;;;16.60;51.70;18.40;101833.00;;;;5437005;26;20823;-76
2024/04/18 10:59:43;;;;;;;0.30;0.20;;;16.80;51.50;18.50;101837.00;;;;5432357;26;20682;-76
2024/04/18 11:02:13;;;;;;;1.25;0.30;;;16.90;51.50;18.50;101839.00;;;;5445082;26;20352;-78
2024/04/18 11:04:42;;;;;;;2.90;0.68;;;16.90;50.70;18.50;101838.00;;;;5448141;26;20800;-77